Terminal Aerodrome Forecast
Issued by NWS

Home | Current Version | Previous Version | Text Only | Print | Product List | Glossary On
Versions: 1 2 3 4 5 6 7 8 9 10 11 12 13 14 15
000
FTPQ31 PGUM 262057 RRE
TAFGRO
TAF

TAF
PGWT 262057Z 2621/2718 22003KT P6SM VCSH FEW015 SCT100=

USA.gov is the U.S. government's official web portal to all federal, state and local government web resources and services.